createdAt,value
2023-02-17T00:01:25.260Z,26.71
2023-02-17T00:03:53.052Z,26.81
2023-02-17T00:06:21.361Z,26.70
2023-02-17T00:08:49.293Z,26.64
2023-02-17T00:11:16.927Z,26.81
2023-02-17T00:13:44.703Z,26.48
2023-02-17T00:16:14.313Z,26.68
2023-02-17T00:18:41.982Z,26.63
2023-02-17T00:21:13.540Z,26.67
2023-02-17T00:23:41.268Z,26.38
2023-02-17T00:26:09.057Z,26.52
2023-02-17T00:28:36.810Z,26.84
2023-02-17T00:31:08.025Z,26.73
2023-02-17T00:33:37.111Z,26.68
2023-02-17T00:36:05.920Z,26.57
2023-02-17T00:38:33.817Z,26.83
2023-02-17T00:41:01.509Z,26.53
2023-02-17T00:43:29.179Z,26.61
2023-02-17T00:45:57.021Z,26.59
2023-02-17T00:48:24.895Z,26.72
2023-02-17T00:50:53.906Z,26.69
2023-02-17T00:53:21.601Z,26.65
2023-02-17T00:55:50.136Z,26.71
2023-02-17T00:58:17.870Z,26.76
2023-02-17T01:00:45.726Z,26.70
2023-02-17T01:03:13.433Z,26.64
2023-02-17T01:05:44.332Z,26.75
2023-02-17T01:08:13.355Z,26.76
2023-02-17T01:10:41.297Z,26.77
2023-02-17T01:13:09.018Z,26.78
2023-02-17T01:15:38.130Z,26.77
2023-02-17T01:18:05.896Z,26.62
2023-02-17T01:20:35.680Z,26.61
2023-02-17T01:23:03.291Z,26.77
2023-02-17T01:25:32.416Z,26.46
2023-02-17T01:28:00.246Z,26.76
2023-02-17T01:30:28.006Z,26.51
2023-02-17T01:32:55.717Z,26.63
2023-02-17T01:35:23.329Z,26.51
2023-02-17T01:37:50.958Z,26.51
2023-02-17T01:40:18.647Z,26.66
2023-02-17T01:42:47.661Z,26.67
2023-02-17T01:45:33.748Z,26.56
2023-02-17T01:48:02.858Z,26.71
2023-02-17T01:50:32.217Z,26.63
2023-02-17T01:52:59.896Z,26.73
2023-02-17T01:55:27.605Z,26.65
2023-02-17T01:57:57.388Z,26.69
2023-02-17T02:00:25.166Z,26.72
2023-02-17T02:02:52.878Z,26.54
2023-02-17T02:05:20.757Z,26.70
2023-02-17T02:07:48.598Z,26.61
2023-02-17T02:10:16.466Z,26.83
2023-02-17T02:12:45.446Z,26.73
2023-02-17T02:15:14.995Z,26.69
2023-02-17T02:17:44.308Z,26.75
2023-02-17T02:20:24.696Z,26.55
2023-02-17T02:22:57.266Z,26.95
2023-02-17T02:25:30.543Z,26.61
2023-02-17T02:28:00.447Z,26.70
2023-02-17T02:30:43.936Z,26.74
2023-02-17T02:33:15.491Z,26.91
2023-02-17T02:35:45.763Z,26.68
2023-02-17T02:38:14.393Z,26.61
2023-02-17T02:40:43.236Z,26.73
2023-02-17T02:43:10.942Z,26.63
2023-02-17T02:45:38.648Z,26.62
2023-02-17T02:48:06.321Z,26.85
2023-02-17T02:50:42.116Z,26.72
2023-02-17T02:53:20.194Z,26.59
2023-02-17T02:55:50.549Z,26.58
2023-02-17T02:58:18.577Z,26.75
2023-02-17T03:00:47.800Z,26.85
2023-02-17T03:03:16.636Z,26.67
2023-02-17T03:05:46.788Z,26.74
2023-02-17T03:08:16.241Z,26.69
2023-02-17T03:10:46.050Z,26.81
2023-02-17T03:13:13.665Z,26.73
2023-02-17T03:15:41.412Z,26.71
2023-02-17T03:18:08.973Z,26.51
2023-02-17T03:20:37.216Z,26.53
2023-02-17T03:23:06.473Z,26.73
2023-02-17T03:25:34.079Z,26.69
2023-02-17T03:28:01.735Z,26.72
2023-02-17T03:30:29.531Z,26.67
2023-02-17T03:32:57.249Z,26.62
2023-02-17T03:35:24.936Z,26.76
2023-02-17T03:37:52.604Z,26.67
2023-02-17T03:40:21.693Z,26.60
2023-02-17T03:42:49.380Z,26.77
2023-02-17T03:45:17.215Z,26.72
2023-02-17T03:47:44.921Z,26.77
2023-02-17T03:50:12.661Z,26.57
2023-02-17T03:52:40.329Z,26.64
2023-02-17T03:55:08.020Z,26.58
2023-02-17T03:57:37.043Z,26.51
2023-02-17T04:00:05.566Z,26.72
2023-02-17T04:02:33.309Z,26.48
2023-02-17T04:05:00.944Z,26.50
2023-02-17T04:07:28.617Z,26.52
2023-02-17T04:09:56.317Z,26.74
2023-02-17T04:12:23.969Z,26.52
2023-02-17T04:14:53.000Z,26.65
2023-02-17T04:17:20.711Z,26.66
2023-02-17T04:19:48.360Z,26.60
2023-02-17T04:22:16.094Z,26.62
2023-02-17T04:24:43.927Z,26.73
2023-02-17T04:27:11.613Z,26.67
2023-02-17T04:29:39.287Z,26.56
2023-02-17T04:32:08.394Z,26.63
2023-02-17T04:34:36.107Z,26.67
2023-02-17T04:37:03.766Z,26.82
2023-02-17T04:39:31.475Z,26.71
2023-02-17T04:41:59.190Z,26.63
2023-02-17T04:44:26.858Z,26.79
2023-02-17T04:46:54.449Z,26.60
2023-02-17T04:49:23.901Z,26.86
2023-02-17T04:51:51.533Z,26.74
2023-02-17T04:54:19.154Z,26.66
2023-02-17T04:56:46.765Z,26.90
2023-02-17T04:59:14.439Z,26.54
2023-02-17T05:01:42.091Z,26.67
2023-02-17T05:04:09.724Z,26.71
2023-02-17T05:06:38.775Z,26.64
2023-02-17T05:09:06.506Z,26.73
2023-02-17T05:11:34.148Z,26.79
2023-02-17T05:14:01.845Z,26.85
2023-02-17T05:16:29.504Z,26.79
2023-02-17T05:18:57.217Z,26.80
2023-02-17T05:21:24.904Z,26.64
2023-02-17T05:23:53.979Z,26.60
2023-02-17T05:26:21.688Z,26.68
2023-02-17T05:28:49.276Z,26.55
2023-02-17T05:31:16.950Z,26.64
2023-02-17T05:33:44.663Z,26.64
2023-02-17T05:36:12.795Z,26.65
2023-02-17T05:38:40.600Z,26.73
2023-02-17T05:41:09.686Z,26.77
2023-02-17T05:43:37.453Z,26.78
2023-02-17T05:46:05.906Z,26.59
2023-02-17T05:48:33.868Z,26.63
2023-02-17T05:51:01.581Z,26.53
2023-02-17T05:53:29.280Z,26.57
2023-02-17T05:55:56.975Z,26.66
2023-02-17T05:58:27.305Z,26.67
2023-02-17T06:00:55.016Z,26.76
2023-02-17T06:03:22.716Z,26.69
2023-02-17T06:05:50.457Z,26.65
2023-02-17T06:08:18.201Z,26.59
2023-02-17T06:10:45.980Z,26.87
2023-02-17T06:13:13.633Z,26.53
2023-02-17T06:15:42.672Z,26.55
2023-02-17T06:18:10.365Z,26.84
2023-02-17T06:20:38.025Z,26.61
2023-02-17T06:23:05.748Z,26.58
2023-02-17T06:25:33.379Z,26.51
2023-02-17T06:28:00.985Z,26.58
2023-02-17T06:30:28.710Z,26.49
2023-02-17T06:32:58.301Z,26.67
2023-02-17T06:35:26.058Z,26.57
2023-02-17T06:37:53.796Z,26.66
2023-02-17T06:40:21.650Z,26.54
2023-02-17T06:42:49.333Z,26.43
2023-02-17T06:45:17.006Z,26.52
2023-02-17T06:47:44.671Z,26.49
2023-02-17T06:50:15.540Z,26.53
2023-02-17T06:52:43.354Z,26.60
2023-02-17T06:55:11.240Z,26.38
2023-02-17T06:57:38.941Z,26.55
2023-02-17T07:00:07.288Z,26.43
2023-02-17T07:02:35.022Z,26.45
2023-02-17T07:05:02.739Z,26.56
2023-02-17T07:07:31.786Z,26.39
2023-02-17T07:09:59.491Z,26.52
2023-02-17T07:12:28.442Z,26.72
2023-02-17T07:14:56.114Z,26.30
2023-02-17T07:17:23.830Z,26.66
2023-02-17T07:19:51.561Z,26.59
2023-02-17T07:22:19.158Z,26.60
2023-02-17T07:24:48.238Z,26.52
2023-02-17T07:27:16.453Z,26.35
2023-02-17T07:29:44.157Z,26.34
2023-02-17T07:32:11.927Z,26.61
2023-02-17T07:34:39.809Z,26.28
2023-02-17T07:37:07.556Z,26.53
2023-02-17T07:39:35.232Z,26.61
2023-02-17T07:42:05.214Z,26.35
2023-02-17T07:44:33.070Z,26.55
2023-02-17T07:47:01.026Z,26.48
2023-02-17T07:49:28.650Z,26.60
2023-02-17T07:51:56.430Z,26.34
2023-02-17T07:54:24.109Z,26.46
2023-02-17T07:56:51.848Z,26.55
2023-02-17T07:59:20.893Z,26.58
2023-02-17T08:01:48.986Z,26.68
2023-02-17T08:04:17.137Z,26.34
2023-02-17T08:06:45.497Z,26.54
2023-02-17T08:09:30.728Z,26.44
2023-02-17T08:12:16.360Z,26.42
2023-02-17T08:14:45.506Z,26.62
2023-02-17T08:17:13.295Z,26.21
2023-02-17T08:19:48.368Z,26.22
2023-02-17T08:22:18.728Z,26.49
2023-02-17T08:24:46.452Z,26.25
2023-02-17T08:27:14.484Z,26.37
2023-02-17T08:30:02.223Z,26.48
2023-02-17T08:32:30.692Z,26.50
2023-02-17T08:34:58.339Z,26.58
2023-02-17T08:37:26.032Z,26.17
2023-02-17T08:39:53.886Z,26.25
2023-02-17T08:42:21.628Z,26.40
2023-02-17T08:48:23.356Z,26.31
2023-02-17T08:50:51.632Z,26.34
2023-02-17T08:53:19.890Z,26.08
2023-02-17T08:55:49.787Z,26.21
2023-02-17T08:58:18.372Z,26.08
2023-02-17T09:00:46.148Z,26.15
2023-02-17T09:03:14.516Z,26.15
2023-02-17T09:05:43.524Z,26.41
2023-02-17T09:08:11.882Z,25.98
2023-02-17T09:10:40.269Z,26.03
2023-02-17T09:13:07.978Z,26.06
2023-02-17T09:15:36.253Z,25.96
2023-02-17T09:18:03.995Z,25.86
2023-02-17T09:20:32.462Z,26.28
2023-02-17T09:23:01.536Z,26.11
2023-02-17T09:25:30.479Z,26.18
2023-02-17T09:27:59.889Z,26.23
2023-02-17T09:30:28.447Z,26.17
2023-02-17T09:32:56.189Z,25.95
2023-02-17T09:35:24.640Z,25.83
2023-02-17T09:37:52.325Z,25.76
2023-02-17T09:40:23.126Z,26.10
2023-02-17T09:42:50.986Z,25.74
2023-02-17T09:45:37.557Z,25.90
2023-02-17T09:48:07.609Z,25.80
2023-02-17T09:50:37.054Z,26.04
2023-02-17T09:53:05.502Z,25.92
2023-02-17T09:55:36.298Z,25.77
2023-02-17T09:58:04.729Z,25.90
2023-02-17T10:00:34.734Z,25.82
2023-02-17T10:03:03.636Z,26.05
2023-02-17T10:05:32.841Z,25.75
2023-02-17T10:08:02.388Z,25.93
2023-02-17T10:10:31.834Z,25.97
2023-02-17T10:13:01.315Z,26.08
2023-02-17T10:15:30.569Z,26.07
2023-02-17T10:17:58.621Z,25.95
2023-02-17T10:20:27.702Z,25.82
2023-02-17T10:22:56.159Z,26.09
2023-02-17T10:25:25.992Z,26.10
2023-02-17T10:27:55.903Z,25.90
2023-02-17T10:30:27.873Z,25.75
2023-02-17T10:33:02.681Z,25.63
2023-02-17T10:35:34.614Z,25.95
2023-02-17T10:38:03.979Z,25.94
2023-02-17T10:40:31.735Z,25.82
2023-02-17T10:43:01.540Z,25.81
2023-02-17T10:45:31.881Z,25.74
2023-02-17T10:48:01.544Z,25.92
2023-02-17T10:50:29.875Z,25.65
2023-02-17T10:52:57.900Z,25.90
2023-02-17T10:55:27.116Z,25.92
2023-02-17T10:57:56.182Z,26.03
2023-02-17T11:00:24.221Z,25.96
2023-02-17T11:02:53.844Z,25.81
2023-02-17T11:05:22.132Z,25.67
2023-02-17T11:07:50.174Z,25.70
2023-02-17T11:10:21.965Z,25.73
2023-02-17T11:12:50.907Z,25.67
2023-02-17T11:15:19.274Z,26.01
2023-02-17T11:17:47.576Z,25.82
2023-02-17T11:20:36.260Z,25.79
2023-02-17T11:23:10.784Z,26.11
2023-02-17T11:25:38.968Z,26.03
2023-02-17T11:28:07.652Z,25.88
2023-02-17T11:30:35.582Z,26.07
2023-02-17T11:33:12.882Z,25.92
2023-02-17T11:35:49.319Z,25.87
2023-02-17T11:38:17.923Z,26.15
2023-02-17T11:40:52.842Z,25.94
2023-02-17T11:43:21.214Z,25.92
2023-02-17T11:45:50.979Z,26.15
2023-02-17T11:48:29.278Z,26.16
2023-02-17T11:50:59.354Z,26.16
2023-02-17T11:53:27.891Z,25.93
2023-02-17T11:56:01.686Z,26.21
2023-02-17T11:58:31.842Z,26.20
2023-02-17T12:01:02.405Z,26.01
2023-02-17T12:03:36.825Z,26.05
2023-02-17T12:06:09.366Z,26.02
2023-02-17T12:08:39.547Z,26.15
2023-02-17T12:11:10.593Z,26.00
2023-02-17T12:13:40.991Z,26.00
2023-02-17T12:16:16.569Z,26.00
2023-02-17T12:18:51.791Z,26.10
2023-02-17T12:21:24.238Z,26.04
2023-02-17T12:23:59.612Z,26.36
2023-02-17T12:26:32.697Z,26.23
2023-02-17T12:29:03.484Z,26.08
2023-02-17T12:31:39.735Z,26.21
2023-02-17T12:34:08.323Z,26.37
2023-02-17T12:36:39.639Z,26.13
2023-02-17T12:39:14.620Z,26.16
2023-02-17T12:41:43.126Z,26.15
2023-02-17T12:44:11.908Z,26.11
2023-02-17T12:46:40.112Z,26.13
2023-02-17T12:49:11.799Z,26.38
2023-02-17T12:51:42.357Z,26.17
2023-02-17T12:54:13.083Z,26.29
2023-02-17T12:56:55.451Z,26.16
2023-02-17T12:59:24.380Z,26.22
2023-02-17T13:01:54.324Z,26.12
2023-02-17T13:04:24.139Z,26.21
2023-02-17T13:06:54.558Z,26.21
2023-02-17T13:09:26.003Z,26.22
2023-02-17T13:11:53.688Z,26.21
2023-02-17T13:14:26.897Z,26.21
2023-02-17T13:16:54.613Z,26.18
2023-02-17T13:19:29.340Z,26.34
2023-02-17T13:21:59.650Z,26.27
2023-02-17T13:24:34.517Z,26.12
2023-02-17T13:27:11.635Z,26.35
2023-02-17T13:29:39.933Z,26.10
2023-02-17T13:32:08.148Z,26.35
2023-02-17T13:34:36.975Z,26.32
2023-02-17T13:37:17.419Z,26.30
2023-02-17T13:39:46.675Z,26.38
2023-02-17T13:42:34.378Z,26.26
2023-02-17T13:45:02.698Z,26.29
2023-02-17T13:47:30.689Z,26.13
2023-02-17T13:49:59.700Z,25.99
2023-02-17T13:52:29.009Z,25.92
2023-02-17T13:54:57.670Z,26.26
2023-02-17T13:57:25.973Z,25.99
2023-02-17T13:59:54.286Z,25.99
2023-02-17T14:02:35.348Z,25.92
2023-02-17T14:05:07.016Z,26.22
2023-02-17T14:07:36.444Z,25.97
2023-02-17T14:10:04.833Z,26.09
2023-02-17T14:12:32.622Z,25.90
2023-02-17T14:18:33.944Z,25.81
2023-02-17T14:21:03.391Z,25.92
2023-02-17T14:23:42.202Z,26.12
2023-02-17T14:26:14.253Z,25.84
2023-02-17T14:28:41.942Z,25.89
2023-02-17T14:31:10.991Z,26.06
2023-02-17T14:33:38.909Z,25.90
2023-02-17T14:36:09.792Z,26.18
2023-02-17T14:38:38.777Z,26.22
2023-02-17T14:41:09.919Z,26.02
2023-02-17T14:43:37.563Z,25.94
2023-02-17T14:46:06.376Z,25.97
2023-02-17T14:48:34.915Z,26.17
2023-02-17T14:51:02.568Z,26.03
2023-02-17T14:53:31.726Z,26.12
2023-02-17T14:56:00.237Z,25.90
2023-02-17T14:58:30.829Z,25.90
2023-02-17T15:00:58.573Z,26.18
2023-02-17T15:03:27.090Z,25.95
2023-02-17T15:05:54.901Z,25.91
2023-02-17T15:08:24.019Z,26.02
2023-02-17T15:10:51.621Z,25.97
2023-02-17T15:13:20.585Z,26.15
2023-02-17T15:15:49.824Z,26.27
2023-02-17T15:18:18.761Z,25.98
2023-02-17T15:20:47.044Z,26.04
2023-02-17T15:23:16.069Z,26.01
2023-02-17T15:25:43.744Z,26.31
2023-02-17T15:28:13.738Z,26.30
2023-02-17T15:31:01.677Z,26.10
2023-02-17T15:33:31.976Z,26.47
2023-02-17T15:35:59.641Z,26.39
2023-02-17T15:38:27.950Z,26.42
2023-02-17T15:40:58.770Z,26.49
2023-02-17T15:43:29.636Z,26.38
2023-02-17T15:45:57.326Z,26.51
2023-02-17T15:48:26.351Z,26.58
2023-02-17T15:50:56.165Z,26.26
2023-02-17T15:53:24.595Z,26.59
2023-02-17T15:55:52.395Z,26.64
2023-02-17T15:58:21.124Z,26.44
2023-02-17T16:00:49.948Z,26.68
2023-02-17T16:03:18.969Z,26.55
2023-02-17T16:05:46.717Z,26.57
2023-02-17T16:08:16.571Z,26.69
2023-02-17T16:10:45.645Z,26.60
2023-02-17T16:13:15.815Z,26.69
2023-02-17T16:15:43.485Z,26.47
2023-02-17T16:18:12.525Z,26.50
2023-02-17T16:20:41.055Z,26.76
2023-02-17T16:23:08.740Z,26.67
2023-02-17T16:25:38.890Z,26.75
2023-02-17T16:28:06.644Z,26.77
2023-02-17T16:30:35.572Z,26.56
2023-02-17T16:33:03.294Z,26.67
2023-02-17T16:35:33.933Z,26.68
2023-02-17T16:38:02.581Z,26.67
2023-02-17T16:40:31.484Z,26.99
2023-02-17T16:43:00.547Z,26.90
2023-02-17T16:45:29.505Z,26.78
2023-02-17T16:47:58.232Z,26.65
2023-02-17T16:50:31.960Z,26.72
2023-02-17T16:52:59.902Z,26.85
2023-02-17T16:55:29.398Z,26.90
2023-02-17T16:57:57.287Z,26.63
2023-02-17T17:00:28.887Z,26.94
2023-02-17T17:02:57.111Z,26.75
2023-02-17T17:05:25.471Z,26.71
2023-02-17T17:07:53.183Z,26.79
2023-02-17T17:10:22.157Z,26.74
2023-02-17T17:12:49.886Z,26.74
2023-02-17T17:15:19.029Z,26.72
2023-02-17T17:17:48.664Z,26.79
2023-02-17T17:20:16.994Z,27.00
2023-02-17T17:22:46.927Z,26.82
2023-02-17T17:25:14.650Z,26.96
2023-02-17T17:27:43.541Z,26.80
2023-02-17T17:30:14.494Z,26.80
2023-02-17T17:32:43.085Z,26.83
2023-02-17T17:35:14.328Z,26.83
2023-02-17T17:37:42.672Z,27.09
2023-02-17T17:40:12.586Z,26.82
2023-02-17T17:42:41.049Z,26.92
2023-02-17T17:45:09.107Z,26.88
2023-02-17T17:47:49.814Z,27.00
2023-02-17T17:50:20.094Z,26.98
2023-02-17T17:52:48.506Z,27.21
2023-02-17T17:55:16.181Z,27.05
2023-02-17T17:57:45.646Z,26.88
2023-02-17T18:00:14.342Z,26.98
2023-02-17T18:02:42.674Z,26.86
2023-02-17T18:05:10.361Z,26.91
2023-02-17T18:07:40.400Z,27.14
2023-02-17T18:10:08.560Z,27.10
2023-02-17T18:12:36.968Z,26.89
2023-02-17T18:15:05.369Z,26.91
2023-02-17T18:17:33.796Z,27.02
2023-02-17T18:20:01.498Z,26.96
2023-02-17T18:22:30.463Z,27.07
2023-02-17T18:24:59.491Z,26.99
2023-02-17T18:27:28.014Z,26.79
2023-02-17T18:29:55.889Z,26.95
2023-02-17T18:32:25.515Z,26.99
2023-02-17T18:34:53.586Z,26.94
2023-02-17T18:37:21.568Z,27.06
2023-02-17T18:39:50.993Z,27.02
2023-02-17T18:42:19.993Z,27.04
2023-02-17T18:44:48.988Z,27.24
2023-02-17T18:47:16.618Z,26.95
2023-02-17T18:49:45.666Z,27.00
2023-02-17T18:52:14.335Z,27.33
2023-02-17T18:54:43.656Z,26.99
2023-02-17T18:57:11.330Z,27.17
2023-02-17T18:59:41.990Z,27.18
2023-02-17T19:02:29.414Z,27.23
2023-02-17T19:04:57.875Z,27.04
2023-02-17T19:07:25.534Z,27.00
2023-02-17T19:09:54.539Z,27.09
2023-02-17T19:12:22.960Z,27.06
2023-02-17T19:14:56.148Z,27.02
2023-02-17T19:17:28.076Z,26.90
2023-02-17T19:19:55.789Z,27.05
2023-02-17T19:22:25.145Z,26.96
2023-02-17T19:24:52.993Z,27.10
2023-02-17T19:27:20.685Z,27.26
2023-02-17T19:29:50.102Z,27.19
2023-02-17T19:32:19.260Z,27.22
2023-02-17T19:34:48.038Z,27.21
2023-02-17T19:37:15.630Z,27.05
2023-02-17T19:39:45.725Z,27.15
2023-02-17T19:42:13.450Z,26.98
2023-02-17T19:44:41.893Z,27.29
2023-02-17T19:47:09.616Z,27.29
2023-02-17T19:49:43.738Z,27.15
2023-02-17T19:52:11.458Z,27.28
2023-02-17T19:54:40.126Z,27.31
2023-02-17T19:57:07.873Z,27.35
2023-02-17T19:59:36.662Z,27.14
2023-02-17T20:02:04.441Z,27.38
2023-02-17T20:04:32.144Z,27.09
2023-02-17T20:07:02.021Z,27.15
2023-02-17T20:09:29.724Z,27.14
2023-02-17T20:11:59.095Z,27.48
2023-02-17T20:14:26.749Z,27.19
2023-02-17T20:16:57.178Z,27.02
2023-02-17T20:19:24.814Z,27.15
2023-02-17T20:21:53.282Z,27.16
2023-02-17T20:24:22.337Z,27.28
2023-02-17T20:26:52.079Z,27.32
2023-02-17T20:29:19.828Z,27.13
2023-02-17T20:31:48.459Z,27.32
2023-02-17T20:34:23.020Z,27.26
2023-02-17T20:36:51.568Z,27.10
2023-02-17T20:39:21.786Z,27.34
2023-02-17T20:41:51.647Z,27.33
2023-02-17T20:44:19.419Z,27.16
2023-02-17T20:46:48.378Z,27.25
2023-02-17T20:49:17.591Z,27.21
2023-02-17T20:51:46.512Z,27.50
2023-02-17T20:54:14.142Z,27.20
2023-02-17T20:56:43.060Z,27.37
2023-02-17T20:59:12.912Z,27.43
2023-02-17T21:01:43.254Z,27.34
2023-02-17T21:04:11.051Z,27.47
2023-02-17T21:06:40.446Z,27.43
2023-02-17T21:11:36.362Z,27.41
2023-02-17T21:14:04.027Z,27.02
2023-02-17T21:16:33.089Z,27.24
2023-02-17T21:19:01.694Z,27.29
2023-02-17T21:21:29.522Z,27.20
2023-02-17T21:23:57.922Z,27.03
2023-02-17T21:26:25.646Z,27.29
2023-02-17T21:28:53.970Z,27.31
2023-02-17T21:31:21.611Z,27.45
2023-02-17T21:33:51.396Z,27.13
2023-02-17T21:36:19.687Z,27.26
2023-02-17T21:38:48.320Z,27.21
2023-02-17T21:41:16.479Z,27.18
2023-02-17T21:44:03.312Z,27.32
2023-02-17T21:47:08.047Z,27.02
2023-02-17T21:49:39.147Z,27.07
2023-02-17T21:52:08.525Z,27.01
2023-02-17T21:54:37.061Z,27.22
2023-02-17T21:57:04.788Z,27.31
2023-02-17T21:59:33.249Z,27.26
2023-02-17T22:02:00.972Z,27.26
2023-02-17T22:04:29.442Z,27.21
2023-02-17T22:06:58.500Z,27.04
2023-02-17T22:09:26.924Z,27.13
2023-02-17T22:11:55.613Z,27.39
2023-02-17T22:14:23.962Z,27.23
2023-02-17T22:16:51.637Z,27.33
2023-02-17T22:19:20.571Z,27.14
2023-02-17T22:21:48.278Z,27.08
2023-02-17T22:24:17.969Z,26.98
2023-02-17T22:26:45.578Z,27.19
2023-02-17T22:29:13.948Z,26.95
2023-02-17T22:31:41.745Z,27.13
2023-02-17T22:34:10.790Z,27.05
2023-02-17T22:36:38.541Z,27.16
2023-02-17T22:39:07.322Z,27.10
2023-02-17T22:41:36.428Z,27.02
2023-02-17T22:44:04.777Z,27.02
2023-02-17T22:46:52.422Z,26.89
2023-02-17T22:49:21.412Z,27.03
2023-02-17T22:51:49.827Z,27.02
2023-02-17T22:54:18.207Z,27.03
2023-02-17T22:56:47.289Z,27.03
2023-02-17T22:59:16.176Z,27.01
2023-02-17T23:01:43.779Z,26.92
2023-02-17T23:04:12.740Z,26.92
2023-02-17T23:06:41.040Z,27.01
2023-02-17T23:09:09.091Z,27.16
2023-02-17T23:11:54.337Z,27.07
2023-02-17T23:14:24.853Z,26.94
2023-02-17T23:17:09.541Z,26.81
2023-02-17T23:19:37.246Z,26.73
2023-02-17T23:22:05.651Z,26.87
2023-02-17T23:24:33.341Z,26.96
2023-02-17T23:27:03.357Z,26.87
2023-02-17T23:29:32.551Z,26.94
2023-02-17T23:32:00.843Z,26.88
2023-02-17T23:34:29.211Z,26.85
2023-02-17T23:36:57.005Z,26.85
2023-02-17T23:39:24.644Z,26.64
2023-02-17T23:41:52.241Z,26.54
2023-02-17T23:44:19.945Z,26.86
2023-02-17T23:46:49.063Z,26.64
2023-02-17T23:49:17.889Z,26.60
2023-02-17T23:51:46.917Z,26.60
2023-02-17T23:54:14.657Z,26.77
2023-02-17T23:56:42.345Z,26.98
2023-02-17T23:59:10.331Z,26.77
